Willow Run, Michigan
Current Conditions -  °F | °C
As of 9:00 AM on Thursday 27 Nov 2014 (Local Time) from KYIP Reporting Station
Overcast Overcast  
Wind Chill: 25°   Ceiling: 3200
Heat Index: 33°   Visibility: 10mi
Dew Point: 21°   Wind: 9mph
Humidity: 61%   Direction: 300°WNW
Pressure: 30.16"   Gusts: NA
Location:  42.272°N, 83.5839°W
Report Text: KYIP 271400Z 30008KT 10SM OVC032 01/M06 A3016 RMK AO2 T00061061
Loading
Personal Weather Stations






























Interactive Weather Map New forecast layout! Learn more

10-Day Weather Forecast

Advertisements
Track Severe Weather on mobile